Time;durP1;ratioP1;P1;durP2;ratioP2;P2;SDS_P1;SDS_P2;PMS_P1;PMS_P2;Temp;Humidity;BMP_temperature;BMP_pressure;BME280_temperature;BME280_humidity;BME280_pressure;Samples;Min_cycle;Max_cycle;Signal;HPM_P1;HPM_P2
2022/03/12 00:00:54;;;;;;;8.68;7.13;;;13.10;33.70;;;;;;5057487;28;20041;-47
2022/03/12 00:03:22;;;;;;;9.55;6.90;;;13.10;33.60;;;;;;5052385;28;20098;-46
2022/03/12 00:05:55;;;;;;;8.65;6.88;;;13.10;33.50;;;;;;5068455;28;20090;-49
2022/03/12 00:08:38;;;;;;;8.05;6.90;;;13.10;33.50;;;;;;5062159;28;20048;-46
2022/03/12 00:11:05;;;;;;;8.90;6.32;;;13.10;33.40;;;;;;5040636;28;20037;-47
2022/03/12 00:13:32;;;;;;;9.63;6.97;;;13.10;33.40;;;;;;5048206;28;20512;-46
2022/03/12 00:15:59;;;;;;;8.13;6.47;;;13.10;33.30;;;;;;5048613;28;20037;-52
2022/03/12 00:18:30;;;;;;;11.98;7.53;;;13.10;33.30;;;;;;5045555;28;20069;-49
2022/03/12 00:21:02;;;;;;;11.38;7.15;;;13.00;33.30;;;;;;5052519;28;20052;-49
2022/03/12 00:23:30;;;;;;;10.07;7.18;;;13.10;33.40;;;;;;5057125;28;20102;-51
2022/03/12 00:25:58;;;;;;;9.68;6.57;;;13.10;33.20;;;;;;5071228;28;20094;-48
2022/03/12 00:28:26;;;;;;;12.40;7.32;;;13.00;33.20;;;;;;5058859;28;20149;-48
2022/03/12 00:30:53;;;;;;;8.93;7.03;;;13.00;33.10;;;;;;5071127;28;20032;-49
2022/03/12 00:33:21;;;;;;;7.68;5.82;;;13.00;33.10;;;;;;5072361;28;20044;-46
2022/03/12 00:35:50;;;;;;;9.77;6.78;;;13.10;33.20;;;;;;5053935;28;20045;-48
2022/03/12 00:38:22;;;;;;;12.57;7.38;;;13.00;32.90;;;;;;5045525;28;20094;-51
2022/03/12 00:40:49;;;;;;;10.33;7.20;;;13.10;33.00;;;;;;5048259;28;20040;-46
2022/03/12 00:43:18;;;;;;;8.23;6.47;;;13.00;33.00;;;;;;5052121;28;20033;-46
2022/03/12 00:45:50;;;;;;;11.10;7.30;;;13.00;33.00;;;;;;5044814;28;20566;-51
2022/03/12 00:48:17;;;;;;;7.93;6.70;;;13.00;32.90;;;;;;5054315;28;20400;-46
2022/03/12 00:51:03;;;;;;;9.85;7.45;;;13.00;33.00;;;;;;5065325;28;20037;-47
2022/03/12 00:53:30;;;;;;;9.35;6.40;;;13.00;32.90;;;;;;5057698;28;20048;-46
2022/03/12 00:55:56;;;;;;;9.65;7.05;;;13.00;33.00;;;;;;5065200;28;20033;-51
2022/03/12 00:58:23;;;;;;;9.95;7.15;;;13.00;33.00;;;;;;5058505;28;20032;-49
2022/03/12 01:00:50;;;;;;;7.93;6.90;;;13.00;33.00;;;;;;5067833;28;20044;-52
2022/03/12 01:03:17;;;;;;;9.38;7.10;;;13.00;33.10;;;;;;5070965;28;20522;-49
2022/03/12 01:06:07;;;;;;;10.38;7.88;;;13.00;33.20;;;;;;5055491;28;20037;-50
2022/03/12 01:08:35;;;;;;;9.13;6.22;;;13.00;33.20;;;;;;5064776;28;20098;-46
2022/03/12 01:11:06;;;;;;;11.93;6.95;;;13.00;33.30;;;;;;5061772;28;20098;-51
2022/03/12 01:13:34;;;;;;;8.50;6.95;;;13.00;33.40;;;;;;5048798;28;20044;-47
2022/03/12 01:16:01;;;;;;;9.00;6.57;;;12.90;33.30;;;;;;5049720;28;20045;-48
2022/03/12 01:18:28;;;;;;;11.18;6.88;;;12.90;33.30;;;;;;5057311;28;20114;-47
2022/03/12 01:21:05;;;;;;;10.05;6.60;;;12.90;33.30;;;;;;5071905;28;20041;-50
2022/03/12 01:23:32;;;;;;;10.63;6.88;;;12.90;33.30;;;;;;5071637;28;20117;-46
2022/03/12 01:25:59;;;;;;;9.20;6.90;;;12.90;33.40;;;;;;5050994;28;20094;-51
2022/03/12 01:28:26;;;;;;;8.23;6.18;;;12.90;33.50;;;;;;5063945;28;20094;-46
2022/03/12 01:30:54;;;;;;;11.13;6.47;;;12.90;33.60;;;;;;5053405;28;20055;-50
2022/03/12 01:33:21;;;;;;;8.93;6.93;;;12.90;33.70;;;;;;5055922;28;20041;-46
2022/03/12 01:35:48;;;;;;;8.85;6.82;;;12.90;33.80;;;;;;5057624;28;20036;-50
2022/03/12 01:38:14;;;;;;;10.93;6.50;;;12.90;33.80;;;;;;5053801;28;20037;-46
2022/03/12 01:40:43;;;;;;;13.43;7.07;;;12.90;33.80;;;;;;5055065;28;20516;-46
2022/03/12 01:43:10;;;;;;;11.27;7.90;;;12.80;33.80;;;;;;5046550;28;20580;-50
2022/03/12 01:45:37;;;;;;;11.25;7.45;;;12.90;34.30;;;;;;5048801;28;20174;-48
2022/03/12 01:48:06;;;;;;;8.80;6.88;;;12.80;34.60;;;;;;5048409;28;20061;-51
2022/03/12 01:50:37;;;;;;;11.57;7.35;;;12.80;34.80;;;;;;5049021;28;20094;-52
2022/03/12 01:53:09;;;;;;;9.02;6.97;;;12.80;35.10;;;;;;5037696;28;20451;-48
2022/03/12 01:55:39;;;;;;;10.05;7.20;;;12.80;35.50;;;;;;5057982;28;20037;-47
2022/03/12 01:58:07;;;;;;;11.00;7.70;;;12.80;35.70;;;;;;5069653;28;20048;-46
2022/03/12 02:00:49;;;;;;;11.18;7.80;;;12.80;36.10;;;;;;5070639;28;20045;-46
2022/03/12 02:03:26;;;;;;;11.40;8.40;;;12.80;36.70;;;;;;5053741;28;20052;-47
2022/03/12 02:05:53;;;;;;;12.40;7.88;;;12.80;36.40;;;;;;5067839;28;20044;-47
2022/03/12 02:08:20;;;;;;;9.88;7.38;;;12.80;36.70;;;;;;5058017;28;20079;-48
2022/03/12 02:10:59;;;;;;;11.73;7.57;;;12.80;36.90;;;;;;5031974;28;20033;-47
2022/03/12 02:13:27;;;;;;;11.60;8.45;;;12.70;37.00;;;;;;5045418;28;20036;-49
2022/03/12 02:16:08;;;;;;;12.60;8.70;;;12.70;37.10;;;;;;5053451;28;20068;-51
2022/03/12 02:18:38;;;;;;;11.77;7.63;;;12.70;37.70;;;;;;5031756;28;20838;-45
2022/03/12 02:21:05;;;;;;;10.30;7.60;;;12.70;37.80;;;;;;5047409;28;20409;-49
2022/03/12 02:24:15;;;;;;;15.32;8.57;;;12.60;37.50;;;;;;5050900;28;20470;-49
2022/03/12 02:26:43;;;;;;;9.13;7.03;;;12.60;37.90;;;;;;5030969;28;20082;-49
2022/03/12 02:29:12;;;;;;;14.32;7.50;;;12.60;37.50;;;;;;5047783;28;20076;-46
2022/03/12 02:31:45;;;;;;;12.07;8.20;;;12.50;37.70;;;;;;5045393;28;20052;-47
2022/03/12 02:34:12;;;;;;;11.23;7.47;;;12.50;37.50;;;;;;5061625;28;20136;-47
2022/03/12 02:36:40;;;;;;;11.75;8.00;;;12.50;37.30;;;;;;5067907;28;20040;-46
2022/03/12 02:39:07;;;;;;;10.32;7.28;;;12.50;37.30;;;;;;5047540;28;20065;-47
2022/03/12 02:41:34;;;;;;;10.68;7.68;;;12.50;38.00;;;;;;5056143;28;20427;-48
2022/03/12 02:44:01;;;;;;;9.18;7.28;;;12.40;37.20;;;;;;5068697;28;20075;-49
2022/03/12 02:46:29;;;;;;;13.27;8.32;;;12.40;37.20;;;;;;5066882;28;20109;-47
2022/03/12 02:48:56;;;;;;;9.82;7.70;;;12.40;37.20;;;;;;5050312;28;20455;-52
2022/03/12 02:51:25;;;;;;;10.95;7.65;;;12.40;37.30;;;;;;5060984;28;20036;-49
2022/03/12 02:53:56;;;;;;;13.55;7.80;;;12.40;37.20;;;;;;5068594;28;20496;-46
2022/03/12 02:56:23;;;;;;;10.32;7.60;;;12.40;37.30;;;;;;5066354;28;20063;-50
2022/03/12 02:58:51;;;;;;;10.00;7.55;;;12.40;37.30;;;;;;5053532;28;20044;-49
2022/03/12 03:01:19;;;;;;;9.38;7.55;;;12.40;37.50;;;;;;5068256;28;20109;-47
2022/03/12 03:03:47;;;;;;;10.77;8.32;;;12.40;37.80;;;;;;5068520;28;20037;-46
2022/03/12 03:06:15;;;;;;;12.40;8.02;;;12.40;38.20;;;;;;5063840;28;20053;-49
2022/03/12 03:08:42;;;;;;;10.70;8.75;;;12.40;38.20;;;;;;5044543;28;20047;-46
2022/03/12 03:11:12;;;;;;;10.05;7.80;;;12.40;38.40;;;;;;5063552;28;20553;-47
2022/03/12 03:13:42;;;;;;;13.02;8.88;;;12.40;38.50;;;;;;5068940;28;20094;-47
2022/03/12 03:16:15;;;;;;;12.20;8.68;;;12.40;38.60;;;;;;5056023;28;20044;-47
2022/03/12 03:18:50;;;;;;;12.13;8.90;;;12.40;38.60;;;;;;5053774;28;20613;-47
2022/03/12 03:21:23;;;;;;;11.25;8.15;;;12.40;38.80;;;;;;5067472;28;20047;-48
2022/03/12 03:23:51;;;;;;;11.60;7.10;;;12.40;38.70;;;;;;5067962;28;20036;-48
2022/03/12 03:26:44;;;;;;;14.57;8.20;;;12.30;38.70;;;;;;5031128;28;20053;-55
2022/03/12 03:29:13;;;;;;;13.20;8.60;;;12.40;39.10;;;;;;5056195;28;20416;-47
2022/03/12 03:31:41;;;;;;;12.30;7.93;;;12.40;38.70;;;;;;5067638;28;20043;-46
2022/03/12 03:34:08;;;;;;;12.98;9.25;;;12.40;39.00;;;;;;5066307;28;20493;-48
2022/03/12 03:36:35;;;;;;;10.20;7.20;;;12.30;38.90;;;;;;5046281;28;20044;-46
2022/03/12 03:39:02;;;;;;;11.43;8.10;;;12.30;39.00;;;;;;5056592;28;20106;-47
2022/03/12 03:41:28;;;;;;;10.02;7.55;;;12.30;39.10;;;;;;5055391;28;20049;-48
2022/03/12 03:43:55;;;;;;;10.20;8.27;;;12.30;39.30;;;;;;5050114;28;20404;-53
2022/03/12 03:46:23;;;;;;;12.18;7.95;;;12.30;39.40;;;;;;5051464;28;20052;-51
2022/03/12 03:48:52;;;;;;;13.10;8.90;;;12.30;39.50;;;;;;5056590;28;20050;-49
2022/03/12 03:51:20;;;;;;;10.48;7.95;;;12.30;39.50;;;;;;5062256;28;20105;-49
2022/03/12 03:53:47;;;;;;;10.52;8.02;;;12.20;39.50;;;;;;5066011;28;20075;-46
2022/03/12 03:56:15;;;;;;;9.85;8.23;;;12.20;39.60;;;;;;5058764;28;20461;-47
2022/03/12 03:58:42;;;;;;;13.80;8.18;;;12.10;39.90;;;;;;5070253;28;20097;-46
2022/03/12 04:01:17;;;;;;;11.80;8.55;;;12.10;39.90;;;;;;5051427;28;20040;-47
2022/03/12 04:03:48;;;;;;;12.13;8.43;;;12.00;40.60;;;;;;5047904;28;20056;-46
2022/03/12 04:06:18;;;;;;;10.02;8.25;;;11.90;40.00;;;;;;5057005;28;20116;-49
2022/03/12 04:08:46;;;;;;;10.63;8.25;;;11.80;40.30;;;;;;5071253;28;20611;-46
2022/03/12 04:11:18;;;;;;;11.70;8.50;;;11.70;40.20;;;;;;5053155;28;20079;-47
2022/03/12 04:13:46;;;;;;;10.98;7.93;;;11.60;40.80;;;;;;5048170;28;20087;-50
2022/03/12 04:16:16;;;;;;;12.25;8.13;;;11.60;40.70;;;;;;5059112;28;20124;-46
2022/03/12 04:18:46;;;;;;;10.45;7.82;;;11.50;41.30;;;;;;5071147;28;20044;-48
2022/03/12 04:21:15;;;;;;;11.85;8.88;;;11.40;40.90;;;;;;5067313;28;20075;-49
2022/03/12 04:23:43;;;;;;;13.05;8.27;;;11.30;40.90;;;;;;5052202;28;20045;-46
2022/03/12 04:26:10;;;;;;;10.75;7.35;;;11.30;41.20;;;;;;5064714;28;20549;-49
2022/03/12 04:28:38;;;;;;;10.85;8.02;;;11.20;41.30;;;;;;5070995;28;20067;-47
2022/03/12 04:31:06;;;;;;;11.07;8.80;;;11.10;41.40;;;;;;5072683;28;20086;-46
2022/03/12 04:33:34;;;;;;;13.50;8.18;;;11.10;41.60;;;;;;5057835;28;20033;-46
2022/03/12 04:36:03;;;;;;;11.73;8.50;;;11.00;41.70;;;;;;5051896;28;20056;-48
2022/03/12 04:38:30;;;;;;;11.35;7.97;;;10.90;41.80;;;;;;5049527;28;20202;-46
2022/03/12 04:40:57;;;;;;;13.25;8.80;;;10.90;41.70;;;;;;5046543;28;20497;-46
2022/03/12 04:43:30;;;;;;;11.40;7.82;;;10.80;41.90;;;;;;5057290;28;20136;-51
2022/03/12 04:45:59;;;;;;;16.67;8.57;;;10.80;42.00;;;;;;5037399;28;20505;-53
2022/03/12 04:48:28;;;;;;;11.60;8.07;;;10.70;42.10;;;;;;5049134;28;20052;-49
2022/03/12 04:50:56;;;;;;;9.93;8.00;;;10.70;42.30;;;;;;5052153;28;20562;-53
2022/03/12 04:53:24;;;;;;;12.68;8.68;;;10.60;42.30;;;;;;5049016;28;20177;-49
2022/03/12 04:55:51;;;;;;;10.98;8.48;;;10.60;42.50;;;;;;5066542;28;20059;-47
2022/03/12 04:58:18;;;;;;;11.80;8.02;;;10.60;42.60;;;;;;5053372;28;20094;-50
2022/03/12 05:00:46;;;;;;;10.65;7.75;;;10.50;42.70;;;;;;5045934;28;20074;-50
2022/03/12 05:03:22;;;;;;;13.10;8.73;;;10.50;42.80;;;;;;5051788;28;20037;-48
2022/03/12 05:05:51;;;;;;;11.88;8.40;;;10.40;43.40;;;;;;5047771;28;20036;-46
2022/03/12 05:08:28;;;;;;;13.68;8.45;;;10.40;43.00;;;;;;5048707;28;20045;-48
2022/03/12 05:10:57;;;;;;;10.95;7.90;;;10.40;43.20;;;;;;5045665;28;20032;-49
2022/03/12 05:13:29;;;;;;;8.52;6.63;;;10.40;43.50;;;;;;5054593;28;20127;-49
2022/03/12 05:16:03;;;;;;;10.00;7.82;;;10.40;43.40;;;;;;5059700;28;20033;-48
2022/03/12 05:18:36;;;;;;;11.05;7.38;;;10.30;43.60;;;;;;5044766;28;20894;-47
2022/03/12 05:21:03;;;;;;;9.75;7.32;;;10.30;44.10;;;;;;5042121;28;20045;-46
2022/03/12 05:23:32;;;;;;;14.05;7.40;;;10.30;43.90;;;;;;5070187;28;20036;-49
2022/03/12 05:25:58;;;;;;;10.18;7.20;;;10.30;44.00;;;;;;5070096;28;20680;-49
2022/03/12 05:28:30;;;;;;;10.27;6.75;;;10.20;44.10;;;;;;5039653;28;20530;-46
2022/03/12 05:31:04;;;;;;;10.63;7.60;;;10.20;44.20;;;;;;5061978;28;20052;-46
2022/03/12 05:33:31;;;;;;;11.15;7.68;;;10.20;44.40;;;;;;5069808;28;20048;-48
2022/03/12 05:35:58;;;;;;;11.90;9.02;;;10.20;44.50;;;;;;5056706;28;20094;-52
2022/03/12 05:38:30;;;;;;;11.82;7.47;;;10.20;44.70;;;;;;5044813;28;20044;-49
2022/03/12 05:40:57;;;;;;;10.40;7.27;;;10.20;44.80;;;;;;5047233;28;20103;-50
2022/03/12 05:43:24;;;;;;;11.73;8.25;;;10.20;44.80;;;;;;5065052;28;20570;-46
2022/03/12 05:45:52;;;;;;;11.80;7.95;;;10.20;45.00;;;;;;5045825;28;20039;-48
2022/03/12 05:48:20;;;;;;;11.90;8.35;;;10.10;45.10;;;;;;5049281;28;20095;-47
2022/03/12 05:50:49;;;;;;;10.35;7.53;;;10.10;45.30;;;;;;5051648;28;20497;-47
2022/03/12 05:53:19;;;;;;;12.38;7.40;;;10.10;45.40;;;;;;5049030;28;20056;-49
2022/03/12 05:55:47;;;;;;;10.45;6.97;;;10.00;45.70;;;;;;5044236;28;20042;-47
2022/03/12 05:58:17;;;;;;;8.70;7.18;;;10.00;45.80;;;;;;5049126;28;20116;-46
2022/03/12 06:00:47;;;;;;;10.97;7.67;;;10.00;46.00;;;;;;5051038;28;20642;-52
2022/03/12 06:03:14;;;;;;;8.77;7.43;;;10.00;46.10;;;;;;5048510;28;20086;-46
2022/03/12 06:05:42;;;;;;;10.88;7.47;;;9.90;46.10;;;;;;5047727;28;20077;-45
2022/03/12 06:08:14;;;;;;;10.32;7.60;;;9.90;46.30;;;;;;5057173;28;20055;-46
2022/03/12 06:10:46;;;;;;;10.38;8.00;;;9.80;46.70;;;;;;5070241;28;20116;-50
2022/03/12 06:13:15;;;;;;;15.50;8.52;;;9.80;46.40;;;;;;5065799;28;20075;-47
2022/03/12 06:15:41;;;;;;;12.40;9.20;;;9.80;46.50;;;;;;5043487;28;20037;-46
2022/03/12 06:18:11;;;;;;;12.68;9.02;;;9.70;46.70;;;;;;5050227;28;20041;-46
2022/03/12 06:20:38;;;;;;;11.55;9.07;;;9.60;46.80;;;;;;5070881;28;20098;-47
2022/03/12 06:23:05;;;;;;;14.07;9.70;;;9.60;47.20;;;;;;5067202;28;20044;-48
2022/03/12 06:25:33;;;;;;;14.23;9.38;;;9.60;47.40;;;;;;5053928;28;20045;-49
2022/03/12 06:28:00;;;;;;;14.80;11.15;;;9.60;47.60;;;;;;5065784;28;20068;-46
2022/03/12 06:30:28;;;;;;;16.80;11.68;;;9.50;47.90;;;;;;5064367;28;20048;-48
2022/03/12 06:32:59;;;;;;;17.63;12.15;;;9.60;48.20;;;;;;5049308;28;20098;-47
2022/03/12 06:35:27;;;;;;;14.07;10.10;;;9.50;48.40;;;;;;5038133;28;20563;-49
2022/03/12 06:37:56;;;;;;;11.95;8.48;;;9.60;48.70;;;;;;5058922;28;20044;-47
2022/03/12 06:40:28;;;;;;;10.63;8.23;;;9.60;48.80;;;;;;5025317;28;20102;-48
2022/03/12 06:42:59;;;;;;;8.82;7.30;;;9.60;49.00;;;;;;5063923;28;20415;-51
2022/03/12 06:45:28;;;;;;;12.40;7.72;;;9.60;49.20;;;;;;5028457;28;20099;-49
2022/03/12 06:47:56;;;;;;;11.85;7.72;;;9.70;49.40;;;;;;5045241;28;20044;-46
2022/03/12 06:50:24;;;;;;;12.98;8.10;;;9.70;49.50;;;;;;5059817;28;20041;-48
2022/03/12 06:52:51;;;;;;;9.98;7.57;;;9.80;49.80;;;;;;5062918;28;20117;-46
2022/03/12 06:55:21;;;;;;;9.57;7.50;;;9.90;49.90;;;;;;5052957;28;20048;-50
2022/03/12 06:57:51;;;;;;;10.38;8.18;;;9.90;50.20;;;;;;5061856;28;20436;-49
2022/03/12 07:00:23;;;;;;;10.68;8.40;;;9.90;50.20;;;;;;5051766;28;20823;-48
2022/03/12 07:02:50;;;;;;;8.45;6.53;;;10.00;50.70;;;;;;5045130;28;20447;-48
2022/03/12 07:05:18;;;;;;;10.38;8.23;;;10.10;50.30;;;;;;5056727;28;20085;-46
2022/03/12 07:07:46;;;;;;;11.30;7.78;;;10.10;50.30;;;;;;5068510;28;20464;-45
2022/03/12 07:10:13;;;;;;;13.95;7.35;;;10.10;50.40;;;;;;5043664;28;22493;-55
2022/03/12 07:12:45;;;;;;;14.25;7.97;;;10.20;50.50;;;;;;5034290;28;20059;-54
2022/03/12 07:15:12;;;;;;;10.65;7.38;;;10.30;50.50;;;;;;5040532;28;20048;-52
2022/03/12 07:17:41;;;;;;;10.57;7.80;;;10.30;50.40;;;;;;5035191;28;20037;-51
2022/03/12 07:20:12;;;;;;;13.00;8.50;;;10.40;50.40;;;;;;5042641;28;20056;-47
2022/03/12 07:22:41;;;;;;;10.90;9.05;;;10.40;50.20;;;;;;5034539;28;20037;-49
2022/03/12 07:25:09;;;;;;;9.95;7.85;;;10.50;50.30;;;;;;5044530;28;20055;-48
2022/03/12 07:27:36;;;;;;;10.57;8.00;;;10.60;50.50;;;;;;5034322;28;20389;-48
2022/03/12 07:30:08;;;;;;;11.38;8.15;;;10.70;50.60;;;;;;5064065;28;20094;-48
2022/03/12 07:32:35;;;;;;;9.60;7.57;;;10.70;50.70;;;;;;5038700;28;20045;-54
2022/03/12 07:35:03;;;;;;;13.45;7.80;;;10.80;50.70;;;;;;5052076;28;20041;-48
2022/03/12 07:37:30;;;;;;;11.57;7.80;;;10.80;50.90;;;;;;5043381;28;20496;-46
2022/03/12 07:39:57;;;;;;;10.25;7.65;;;10.90;50.80;;;;;;5044953;28;20047;-48
2022/03/12 07:42:24;;;;;;;9.48;6.68;;;10.90;50.90;;;;;;5044586;28;20041;-46
2022/03/12 07:44:53;;;;;;;11.20;7.20;;;11.00;50.90;;;;;;5050535;28;20053;-49
2022/03/12 07:47:20;;;;;;;12.57;7.78;;;11.10;51.00;;;;;;5039491;28;20052;-46
2022/03/12 07:49:47;;;;;;;11.07;7.65;;;11.20;51.20;;;;;;5048395;28;20044;-46
2022/03/12 07:52:15;;;;;;;8.60;6.45;;;11.30;51.40;;;;;;5049407;28;20045;-46
2022/03/12 07:54:42;;;;;;;9.50;7.78;;;11.30;51.50;;;;;;5069861;28;20044;-49
2022/03/12 07:57:09;;;;;;;9.88;6.80;;;11.40;51.70;;;;;;5039335;28;20489;-46
2022/03/12 07:59:36;;;;;;;7.85;6.68;;;11.50;51.80;;;;;;5049283;28;20048;-45
2022/03/12 08:02:03;;;;;;;9.07;6.20;;;11.60;52.00;;;;;;5044340;28;20052;-49
2022/03/12 08:04:33;;;;;;;10.20;6.85;;;11.70;52.80;;;;;;5049507;28;20049;-49
2022/03/12 08:07:02;;;;;;;8.80;6.25;;;11.80;52.50;;;;;;5039113;28;20120;-48
2022/03/12 08:09:30;;;;;;;7.20;6.20;;;11.90;52.60;;;;;;5047755;28;20037;-53
2022/03/12 08:11:58;;;;;;;7.25;6.18;;;12.00;53.00;;;;;;5046003;28;20134;-49
2022/03/12 08:14:26;;;;;;;7.90;6.00;;;12.10;53.20;;;;;;5059812;28;20036;-46
2022/03/12 08:16:52;;;;;;;8.50;5.72;;;12.30;53.50;;;;;;5045133;28;20056;-46
2022/03/12 08:19:21;;;;;;;8.30;5.07;;;12.40;53.50;;;;;;5049868;28;20037;-47
2022/03/12 08:21:49;;;;;;;7.80;5.50;;;12.50;53.60;;;;;;5042981;28;20086;-49
2022/03/12 08:24:16;;;;;;;7.00;5.95;;;12.60;53.60;;;;;;5055501;28;20045;-48
2022/03/12 08:26:45;;;;;;;8.52;5.88;;;12.70;53.60;;;;;;5047322;28;20038;-49
2022/03/12 08:29:14;;;;;;;6.47;5.35;;;12.90;53.80;;;;;;5056671;28;20455;-49
2022/03/12 08:31:41;;;;;;;7.18;5.28;;;13.00;53.70;;;;;;5051872;28;20103;-48
2022/03/12 08:34:10;;;;;;;6.60;5.00;;;13.10;53.50;;;;;;5044299;28;20496;-51
2022/03/12 08:36:38;;;;;;;8.30;5.72;;;13.20;53.40;;;;;;5043957;28;20404;-46
2022/03/12 08:39:05;;;;;;;6.85;5.05;;;13.30;53.20;;;;;;5051905;28;20596;-46
2022/03/12 08:41:34;;;;;;;7.00;5.28;;;13.40;53.10;;;;;;5052686;28;20104;-45
2022/03/12 08:44:02;;;;;;;6.22;4.72;;;13.50;53.20;;;;;;5032478;28;20409;-46
2022/03/12 08:46:29;;;;;;;6.05;4.95;;;13.60;53.20;;;;;;5031542;28;20045;-50
2022/03/12 08:48:56;;;;;;;7.22;5.18;;;13.70;52.80;;;;;;5056140;28;20718;-48
2022/03/12 08:51:23;;;;;;;6.03;4.70;;;13.70;52.60;;;;;;5053813;28;20036;-53
2022/03/12 08:53:49;;;;;;;4.75;4.22;;;13.80;52.50;;;;;;5043659;28;20040;-51
2022/03/12 08:56:16;;;;;;;5.35;4.82;;;13.80;52.40;;;;;;5041663;28;20515;-47
2022/03/12 08:58:43;;;;;;;6.97;4.22;;;13.90;52.40;;;;;;5050721;28;20032;-47
2022/03/12 09:01:10;;;;;;;6.30;4.70;;;14.00;52.40;;;;;;5053900;28;20114;-49
2022/03/12 09:03:37;;;;;;;6.28;5.00;;;14.00;52.30;;;;;;5043139;28;20405;-45
2022/03/12 09:06:05;;;;;;;5.05;4.10;;;14.20;52.50;;;;;;5041241;28;20127;-45
2022/03/12 09:08:32;;;;;;;6.30;4.47;;;14.20;52.50;;;;;;5055379;28;20153;-47
2022/03/12 09:10:59;;;;;;;6.47;4.70;;;14.30;52.40;;;;;;5048720;28;20036;-49
2022/03/12 09:13:27;;;;;;;5.00;4.03;;;14.30;52.40;;;;;;5042795;28;20067;-46
2022/03/12 09:15:54;;;;;;;4.78;4.28;;;14.40;52.20;;;;;;5050750;28;20544;-49
2022/03/12 09:18:21;;;;;;;4.90;3.90;;;14.50;52.20;;;;;;5046874;28;20572;-46
2022/03/12 09:20:48;;;;;;;5.60;3.80;;;14.60;52.00;;;;;;5028481;28;20479;-49
2022/03/12 09:23:18;;;;;;;4.40;3.78;;;14.70;51.80;;;;;;5050211;28;20043;-47
2022/03/12 09:25:46;;;;;;;6.35;3.85;;;14.70;51.60;;;;;;5048631;28;20041;-53
2022/03/12 09:28:14;;;;;;;6.18;4.35;;;14.80;52.10;;;;;;5049583;28;20037;-52
2022/03/12 09:30:41;;;;;;;6.00;4.15;;;14.90;51.40;;;;;;5044473;28;20041;-53
2022/03/12 09:33:08;;;;;;;9.27;4.28;;;15.00;51.20;;;;;;5036951;28;20045;-46
2022/03/12 09:35:36;;;;;;;4.35;3.67;;;15.10;51.30;;;;;;5057322;28;20063;-48
2022/03/12 09:38:03;;;;;;;6.60;4.05;;;15.20;51.20;;;;;;5041811;28;20064;-48
2022/03/12 09:40:31;;;;;;;4.45;3.60;;;15.20;51.10;;;;;;5051293;28;20425;-49
2022/03/12 09:42:58;;;;;;;6.88;3.45;;;15.30;51.00;;;;;;5041392;28;20033;-46
2022/03/12 09:45:25;;;;;;;4.40;3.70;;;15.40;50.80;;;;;;5055154;28;20074;-46
2022/03/12 09:47:52;;;;;;;6.47;4.10;;;15.30;50.50;;;;;;5036004;28;20053;-46
2022/03/12 09:50:21;;;;;;;4.53;3.97;;;15.60;50.40;;;;;;5029908;28;20073;-49
2022/03/12 09:52:48;;;;;;;6.80;4.03;;;15.60;50.10;;;;;;5029970;28;20105;-51
2022/03/12 09:55:16;;;;;;;6.38;3.13;;;15.70;50.10;;;;;;5065704;28;20037;-46
2022/03/12 09:57:44;;;;;;;3.95;2.80;;;15.80;49.80;;;;;;5034577;28;20045;-46
2022/03/12 10:00:12;;;;;;;2.83;2.58;;;15.90;49.70;;;;;;5031842;28;20049;-50
2022/03/12 10:02:39;;;;;;;4.60;3.13;;;16.00;49.60;;;;;;5042030;28;20049;-46
2022/03/12 10:05:07;;;;;;;5.30;2.80;;;16.10;49.30;;;;;;5066226;28;20044;-47
2022/03/12 10:07:34;;;;;;;4.10;3.10;;;16.10;49.00;;;;;;5040865;28;20508;-51
2022/03/12 10:10:01;;;;;;;3.60;2.60;;;16.20;48.90;;;;;;5045531;28;20625;-47
2022/03/12 10:12:28;;;;;;;3.40;3.00;;;16.30;48.70;;;;;;5045610;28;20476;-47
2022/03/12 10:14:58;;;;;;;6.60;3.38;;;16.30;48.60;;;;;;5055582;28;20453;-48
2022/03/12 10:17:24;;;;;;;3.70;3.08;;;16.40;48.50;;;;;;5044840;28;20033;-46
2022/03/12 10:19:51;;;;;;;4.20;2.70;;;16.50;48.30;;;;;;5039231;28;20421;-46
2022/03/12 10:22:19;;;;;;;4.63;2.97;;;16.50;48.00;;;;;;5046713;28;20104;-47
2022/03/12 10:24:45;;;;;;;3.60;2.65;;;16.60;47.70;;;;;;5066270;28;20044;-47
2022/03/12 10:27:12;;;;;;;4.70;2.78;;;16.70;47.90;;;;;;5036649;28;20041;-46
2022/03/12 10:29:40;;;;;;;3.58;2.38;;;16.80;47.80;;;;;;5050646;28;20045;-45
2022/03/12 10:32:29;;;;;;;4.25;2.30;;;16.80;47.30;;;;;;5044105;28;20049;-47
2022/03/12 10:34:59;;;;;;;4.57;3.03;;;16.90;47.50;;;;;;5037589;28;20045;-46
2022/03/12 10:37:31;;;;;;;4.25;3.15;;;17.00;47.30;;;;;;5040144;28;20051;-47
2022/03/12 10:40:12;;;;;;;4.63;2.67;;;17.00;47.10;;;;;;5052318;28;20403;-48
2022/03/12 10:42:52;;;;;;;4.47;2.60;;;17.10;46.90;;;;;;5044612;28;20079;-46
2022/03/12 10:45:30;;;;;;;3.53;2.60;;;17.20;46.80;;;;;;5031133;28;20272;-49
2022/03/12 10:48:02;;;;;;;3.65;2.80;;;17.20;46.50;;;;;;5034672;28;20519;-47
2022/03/12 10:50:50;;;;;;;4.77;2.67;;;17.20;46.20;;;;;;5035758;28;20040;-46
2022/03/12 10:53:18;;;;;;;3.20;2.38;;;17.30;46.30;;;;;;5041012;28;20115;-47
2022/03/12 10:55:47;;;;;;;3.90;2.72;;;17.20;46.20;;;;;;5029459;28;20045;-55
2022/03/12 10:58:20;;;;;;;4.75;2.38;;;17.30;46.40;;;;;;5047759;28;20041;-46
2022/03/12 11:00:48;;;;;;;2.13;1.92;;;17.30;46.40;;;;;;5054436;28;20044;-49
2022/03/12 11:03:19;;;;;;;3.60;2.33;;;17.30;46.20;;;;;;5037652;28;20433;-49
2022/03/12 11:05:48;;;;;;;3.47;2.60;;;17.40;46.00;;;;;;5028916;28;20041;-46
2022/03/12 11:08:21;;;;;;;4.10;2.05;;;17.40;46.00;;;;;;5046201;28;20045;-46
2022/03/12 11:10:59;;;;;;;3.70;2.58;;;17.40;46.00;;;;;;5041683;28;20067;-50
2022/03/12 11:13:40;;;;;;;3.78;2.30;;;17.50;45.80;;;;;;5038045;28;20037;-48
2022/03/12 11:16:11;;;;;;;3.30;2.10;;;17.50;45.70;;;;;;5038622;28;20041;-49
2022/03/12 11:18:46;;;;;;;5.45;2.30;;;17.50;45.40;;;;;;5045578;28;20049;-51
2022/03/12 11:21:24;;;;;;;5.60;2.30;;;17.50;45.20;;;;;;5041851;28;20075;-46
2022/03/12 11:23:51;;;;;;;3.67;2.50;;;17.60;45.40;;;;;;5027847;28;20060;-47
2022/03/12 11:26:17;;;;;;;3.60;2.03;;;17.60;45.30;;;;;;5019237;28;20505;-48
2022/03/12 11:28:56;;;;;;;3.63;2.25;;;17.60;45.40;;;;;;5045474;28;20037;-47
2022/03/12 11:31:41;;;;;;;4.53;2.35;;;17.60;45.10;;;;;;5035228;28;20701;-52
2022/03/12 11:34:22;;;;;;;4.53;2.63;;;17.60;45.00;;;;;;5041221;28;20753;-49
2022/03/12 11:37:04;;;;;;;1.98;1.70;;;17.60;45.10;;;;;;5036591;28;20408;-53
2022/03/12 11:39:39;;;;;;;2.83;1.85;;;17.60;45.00;;;;;;5041812;28;20784;-50
2022/03/12 11:42:15;;;;;;;2.90;1.98;;;17.60;45.00;;;;;;5035151;28;20054;-48
2022/03/12 11:44:54;;;;;;;4.43;1.75;;;17.70;45.10;;;;;;5042838;28;20053;-51
2022/03/12 11:47:26;;;;;;;2.83;1.40;;;17.70;45.30;;;;;;5035269;28;20053;-50
2022/03/12 11:49:56;;;;;;;3.85;1.90;;;17.80;44.80;;;;;;5041200;28;20037;-46
2022/03/12 11:52:23;;;;;;;3.13;1.80;;;17.90;44.50;;;;;;5027386;28;20044;-48
2022/03/12 11:54:56;;;;;;;2.03;1.60;;;18.00;44.10;;;;;;5043599;28;20041;-47
2022/03/12 11:57:30;;;;;;;2.28;1.52;;;18.00;43.90;;;;;;5037422;28;20076;-49
2022/03/12 11:59:58;;;;;;;2.92;1.50;;;18.10;43.50;;;;;;5039429;28;20041;-51
2022/03/12 12:02:35;;;;;;;1.98;1.40;;;18.20;43.50;;;;;;5032856;28;20110;-52
2022/03/12 12:05:10;;;;;;;3.13;1.55;;;18.30;43.50;;;;;;5043213;28;20588;-48
2022/03/12 12:07:39;;;;;;;2.83;1.40;;;18.30;43.40;;;;;;5022611;28;20123;-53
2022/03/12 12:10:08;;;;;;;2.13;1.30;;;18.40;43.50;;;;;;5038211;28;20107;-47
2022/03/12 12:12:43;;;;;;;1.50;1.40;;;18.40;43.50;;;;;;5036010;28;20043;-47
2022/03/12 12:15:15;;;;;;;3.03;1.80;;;18.50;43.30;;;;;;5041435;28;20119;-47
2022/03/12 12:17:43;;;;;;;3.20;2.17;;;18.60;43.10;;;;;;5038984;28;20069;-51
2022/03/12 12:20:13;;;;;;;4.80;1.85;;;18.70;42.70;;;;;;5042134;28;20139;-48
2022/03/12 12:22:40;;;;;;;2.22;1.50;;;18.70;42.80;;;;;;5040313;28;20041;-51
2022/03/12 12:25:09;;;;;;;3.55;1.92;;;18.80;42.80;;;;;;5038620;28;20090;-49
2022/03/12 12:27:52;;;;;;;2.05;1.50;;;18.80;42.40;;;;;;5037578;28;20068;-49
2022/03/12 12:30:24;;;;;;;2.53;1.53;;;18.90;42.00;;;;;;5047996;28;20103;-48
2022/03/12 12:32:52;;;;;;;1.67;1.58;;;19.00;42.30;;;;;;5037835;28;20040;-49
2022/03/12 12:35:22;;;;;;;4.50;2.17;;;19.10;41.90;;;;;;5041130;28;20602;-48
2022/03/12 12:37:56;;;;;;;3.95;1.63;;;19.10;41.80;;;;;;5037554;28;20037;-50
2022/03/12 12:40:24;;;;;;;2.35;1.40;;;19.10;41.80;;;;;;5040181;28;20120;-50
2022/03/12 12:42:53;;;;;;;2.97;1.77;;;19.20;42.00;;;;;;5033703;28;20126;-50
2022/03/12 12:45:26;;;;;;;1.63;1.52;;;19.30;41.70;;;;;;5038221;28;20095;-48
2022/03/12 12:48:19;;;;;;;3.00;1.60;;;19.30;41.30;;;;;;5034205;28;20132;-54
2022/03/12 12:51:02;;;;;;;3.15;2.45;;;19.40;40.80;;;;;;5040848;28;20073;-55
2022/03/12 12:53:45;;;;;;;4.22;2.42;;;19.60;41.10;;;;;;5040798;28;20048;-47
2022/03/12 12:56:19;;;;;;;3.67;1.58;;;19.50;41.00;;;;;;5034695;28;20516;-54